createdAt,value
2019-05-26T00:00:18.899Z,7.28
2019-05-26T00:02:47.410Z,7.65
2019-05-26T00:05:15.926Z,7.37
2019-05-26T00:07:44.430Z,10.65
2019-05-26T00:10:13.861Z,7.28
2019-05-26T00:12:42.668Z,7.40
2019-05-26T00:15:11.273Z,7.17
2019-05-26T00:17:39.709Z,7.20
2019-05-26T00:20:09.285Z,8.93
2019-05-26T00:22:37.790Z,6.50
2019-05-26T00:25:07.560Z,6.83
2019-05-26T00:27:36.018Z,6.83
2019-05-26T00:30:06.569Z,6.22
2019-05-26T00:32:34.983Z,7.25
2019-05-26T00:35:08.282Z,6.92
2019-05-26T00:37:48.679Z,7.12
2019-05-26T00:40:07.867Z,7.72
2019-05-26T00:42:36.390Z,7.35
2019-05-26T00:45:09.443Z,7.78
2019-05-26T00:47:37.867Z,6.65
2019-05-26T00:50:08.867Z,6.72
2019-05-26T00:52:37.656Z,7.90
2019-05-26T00:55:08.003Z,8.10
2019-05-26T00:57:36.780Z,7.97
2019-05-26T01:00:07.499Z,9.80
2019-05-26T01:02:35.912Z,6.83
2019-05-26T01:05:06.302Z,8.10
2019-05-26T01:07:34.775Z,7.03
2019-05-26T01:10:04.936Z,8.33
2019-05-26T01:12:33.387Z,7.00
2019-05-26T01:15:01.970Z,8.50
2019-05-26T01:17:30.400Z,7.15
2019-05-26T01:19:58.827Z,7.10
2019-05-26T01:22:27.404Z,7.60
2019-05-26T01:24:55.819Z,7.95
2019-05-26T01:27:24.246Z,7.30
2019-05-26T01:29:52.692Z,7.95
2019-05-26T01:32:21.112Z,7.10
2019-05-26T01:34:49.615Z,7.08
2019-05-26T01:37:18.306Z,7.20
2019-05-26T01:39:46.714Z,6.90
2019-05-26T01:42:15.131Z,7.00
2019-05-26T01:44:43.572Z,6.90
2019-05-26T01:47:12.015Z,7.70
2019-05-26T01:49:40.487Z,8.30
2019-05-26T01:52:08.892Z,7.00
2019-05-26T01:54:40.635Z,6.95
2019-05-26T01:57:07.558Z,8.03
2019-05-26T01:59:35.975Z,6.80
2019-05-26T02:02:04.761Z,7.58
2019-05-26T02:04:33.269Z,7.42
2019-05-26T02:07:01.732Z,6.17
2019-05-26T02:09:30.132Z,6.10
2019-05-26T02:11:58.549Z,6.10
2019-05-26T02:14:27.023Z,6.25
2019-05-26T02:16:55.483Z,5.83
2019-05-26T02:19:23.897Z,6.08
2019-05-26T02:21:52.449Z,6.62
2019-05-26T02:24:20.906Z,7.72
2019-05-26T02:26:49.341Z,7.15
2019-05-26T02:29:17.913Z,6.40
2019-05-26T02:31:46.359Z,6.53
2019-05-26T02:34:14.792Z,6.42
2019-05-26T02:36:43.229Z,5.83
2019-05-26T02:39:11.644Z,5.67
2019-05-26T02:41:40.142Z,6.90
2019-05-26T02:44:08.754Z,6.85
2019-05-26T02:46:37.186Z,5.83
2019-05-26T02:49:05.694Z,5.45
2019-05-26T02:51:34.133Z,5.30
2019-05-26T02:54:02.619Z,5.53
2019-05-26T02:56:31.214Z,5.90
2019-05-26T02:58:59.651Z,5.20
2019-05-26T03:01:28.749Z,6.20
2019-05-26T03:03:57.309Z,6.00
2019-05-26T03:06:28.161Z,6.20
2019-05-26T03:08:58.653Z,5.90
2019-05-26T03:11:29.710Z,6.08
2019-05-26T03:14:00.233Z,6.10
2019-05-26T03:16:31.310Z,6.30
2019-05-26T03:19:01.719Z,5.42
2019-05-26T03:21:33.007Z,5.90
2019-05-26T03:24:03.232Z,5.55
2019-05-26T03:26:31.850Z,5.25
2019-05-26T03:29:00.263Z,4.78
2019-05-26T03:31:28.788Z,5.80
2019-05-26T03:33:57.242Z,5.40
2019-05-26T03:36:25.716Z,5.35
2019-05-26T03:38:54.161Z,4.83
2019-05-26T03:41:22.590Z,5.30
2019-05-26T03:43:51.071Z,4.72
2019-05-26T03:46:20.519Z,4.60
2019-05-26T03:48:49.499Z,5.22
2019-05-26T03:51:17.990Z,5.60
2019-05-26T03:53:46.475Z,5.50
2019-05-26T03:56:14.915Z,6.58
2019-05-26T03:58:43.439Z,5.87
2019-05-26T04:01:11.960Z,5.55
2019-05-26T04:03:40.467Z,5.85
2019-05-26T04:06:09.017Z,5.53
2019-05-26T04:08:37.565Z,6.05
2019-05-26T04:11:06.090Z,4.70
2019-05-26T04:13:34.677Z,5.95
2019-05-26T04:16:03.166Z,5.85
2019-05-26T04:18:31.601Z,7.22
2019-05-26T04:21:00.046Z,4.20
2019-05-26T04:23:28.630Z,4.90
2019-05-26T04:25:57.115Z,4.50
2019-05-26T04:28:25.569Z,5.00
2019-05-26T04:30:54.028Z,5.15
2019-05-26T04:33:22.517Z,5.67
2019-05-26T04:35:50.956Z,5.33
2019-05-26T04:38:19.521Z,7.15
2019-05-26T04:40:48.001Z,5.00
2019-05-26T04:43:16.524Z,4.75
2019-05-26T04:45:45.049Z,4.72
2019-05-26T04:48:13.482Z,4.08
2019-05-26T04:50:42.036Z,5.17
2019-05-26T04:53:10.541Z,4.40
2019-05-26T04:55:38.964Z,4.50
2019-05-26T04:58:07.539Z,5.15
2019-05-26T05:00:35.960Z,4.45
2019-05-26T05:03:04.651Z,4.45
2019-05-26T05:05:33.164Z,4.42
2019-05-26T05:08:01.612Z,6.10
2019-05-26T05:10:41.967Z,5.12
2019-05-26T05:13:00.276Z,4.33
2019-05-26T05:15:28.765Z,4.70
2019-05-26T05:17:57.284Z,4.17
2019-05-26T05:20:25.773Z,4.80
2019-05-26T05:22:54.184Z,4.70
2019-05-26T05:25:22.776Z,4.80
2019-05-26T05:27:51.255Z,7.33
2019-05-26T05:30:19.796Z,4.30
2019-05-26T05:32:48.211Z,4.00
2019-05-26T05:35:17.596Z,4.75
2019-05-26T05:37:46.014Z,4.87
2019-05-26T05:40:16.204Z,4.20
2019-05-26T05:42:44.709Z,4.70
2019-05-26T05:45:13.465Z,5.62
2019-05-26T05:47:42.002Z,4.90
2019-05-26T05:50:11.197Z,5.50
2019-05-26T05:52:39.637Z,5.70
2019-05-26T05:55:09.201Z,5.10
2019-05-26T05:57:37.616Z,5.60
2019-05-26T06:00:07.499Z,5.22
2019-05-26T06:02:35.994Z,5.40
2019-05-26T06:05:07.267Z,5.47
2019-05-26T06:07:35.714Z,5.50
2019-05-26T06:10:07.182Z,5.33
2019-05-26T06:12:35.682Z,5.05
2019-05-26T06:15:07.087Z,5.10
2019-05-26T06:17:35.552Z,4.78
2019-05-26T06:20:05.612Z,5.03
2019-05-26T06:22:34.105Z,4.80
2019-05-26T06:25:02.665Z,5.00
2019-05-26T06:27:31.126Z,4.47
2019-05-26T06:29:59.618Z,4.40
2019-05-26T06:32:28.073Z,5.55
2019-05-26T06:34:56.497Z,5.03
2019-05-26T06:37:25.019Z,4.58
2019-05-26T06:39:53.468Z,4.85
2019-05-26T06:42:21.898Z,4.67
2019-05-26T06:44:53.836Z,4.33
2019-05-26T06:47:20.500Z,3.75
2019-05-26T06:49:48.963Z,5.20
2019-05-26T06:52:17.371Z,5.40
2019-05-26T06:54:45.890Z,4.37
2019-05-26T06:57:16.009Z,4.10
2019-05-26T06:59:44.462Z,4.45
2019-05-26T07:02:12.933Z,5.55
2019-05-26T07:04:41.431Z,5.08
2019-05-26T07:07:10.021Z,4.78
2019-05-26T07:09:38.468Z,5.50
2019-05-26T07:12:07.081Z,6.12
2019-05-26T07:14:35.527Z,5.08
2019-05-26T07:17:04.025Z,5.28
2019-05-26T07:19:32.477Z,5.35
2019-05-26T07:22:00.985Z,6.33
2019-05-26T07:24:29.749Z,4.40
2019-05-26T07:26:58.459Z,6.62
2019-05-26T07:29:27.026Z,4.62
2019-05-26T07:31:55.565Z,7.50
2019-05-26T07:34:24.039Z,5.40
2019-05-26T07:36:52.474Z,5.42
2019-05-26T07:39:20.970Z,4.55
2019-05-26T07:42:08.166Z,5.62
2019-05-26T07:44:19.686Z,4.70
2019-05-26T07:46:48.137Z,5.12
2019-05-26T07:49:16.564Z,4.80
2019-05-26T07:51:45.530Z,5.70
2019-05-26T07:54:24.992Z,6.05
2019-05-26T07:56:44.218Z,6.40
2019-05-26T07:59:12.777Z,4.85
2019-05-26T08:01:41.260Z,4.00
2019-05-26T08:04:09.747Z,3.95
2019-05-26T08:06:38.350Z,4.47
2019-05-26T08:09:08.569Z,3.62
2019-05-26T08:11:37.012Z,3.70
2019-05-26T08:14:05.518Z,3.30
2019-05-26T08:16:33.979Z,3.50
2019-05-26T08:19:02.433Z,3.25
2019-05-26T08:21:30.865Z,3.30
2019-05-26T08:23:59.384Z,3.75
2019-05-26T08:26:27.899Z,4.08
2019-05-26T08:28:56.371Z,3.98
2019-05-26T08:31:24.945Z,3.83
2019-05-26T08:33:53.418Z,2.90
2019-05-26T08:36:21.944Z,3.08
2019-05-26T08:38:50.427Z,3.45
2019-05-26T08:41:18.952Z,3.00
2019-05-26T08:43:47.380Z,3.70
2019-05-26T08:46:15.823Z,3.37
2019-05-26T08:48:44.280Z,3.27
2019-05-26T08:51:12.779Z,2.55
2019-05-26T08:53:41.997Z,3.33
2019-05-26T08:56:10.464Z,2.65
2019-05-26T08:58:38.880Z,2.50
2019-05-26T09:01:07.346Z,2.50
2019-05-26T09:03:35.818Z,2.70
2019-05-26T09:06:04.610Z,2.55
2019-05-26T09:08:33.054Z,3.70
2019-05-26T09:11:01.708Z,2.95
2019-05-26T09:13:30.216Z,2.10
2019-05-26T09:15:58.635Z,2.80
2019-05-26T09:18:27.177Z,2.40
2019-05-26T09:20:55.610Z,3.67
2019-05-26T09:23:24.078Z,3.08
2019-05-26T09:25:52.498Z,4.10
2019-05-26T09:28:20.939Z,2.50
2019-05-26T09:30:49.485Z,3.72
2019-05-26T09:33:17.969Z,2.55
2019-05-26T09:35:46.385Z,2.10
2019-05-26T09:38:14.842Z,2.83
2019-05-26T09:40:43.569Z,2.80
2019-05-26T09:43:16.084Z,3.05
2019-05-26T09:45:42.570Z,3.08
2019-05-26T09:48:11.194Z,3.17
2019-05-26T09:50:40.068Z,2.85
2019-05-26T09:53:08.901Z,3.10
2019-05-26T09:55:37.422Z,1.75
2019-05-26T09:58:05.960Z,2.17
2019-05-26T10:00:35.115Z,2.02
2019-05-26T10:03:03.660Z,1.80
2019-05-26T10:05:32.628Z,2.30
2019-05-26T10:08:02.253Z,32.10
2019-05-26T10:10:31.532Z,25.80
2019-05-26T10:13:00.260Z,2.70
2019-05-26T10:15:28.801Z,2.17
2019-05-26T10:17:57.236Z,2.35
2019-05-26T10:20:25.756Z,2.67
2019-05-26T10:22:54.317Z,2.22
2019-05-26T10:25:22.839Z,1.72
2019-05-26T10:27:51.373Z,2.00
2019-05-26T10:30:19.933Z,1.62
2019-05-26T10:32:48.391Z,3.50
2019-05-26T10:35:17.019Z,1.92
2019-05-26T10:37:45.455Z,2.67
2019-05-26T10:40:14.900Z,1.95
2019-05-26T10:42:43.308Z,2.55
2019-05-26T10:45:12.830Z,2.37
2019-05-26T10:47:41.324Z,1.70
2019-05-26T10:50:11.012Z,3.27
2019-05-26T10:52:39.514Z,1.92
2019-05-26T10:55:08.374Z,1.37
2019-05-26T10:57:37.126Z,2.27
2019-05-26T11:00:09.746Z,1.72
2019-05-26T11:02:38.399Z,2.12
2019-05-26T11:05:07.691Z,1.98
2019-05-26T11:07:36.132Z,2.45
2019-05-26T11:10:07.111Z,2.22
2019-05-26T11:12:35.678Z,1.40
2019-05-26T11:15:07.549Z,1.95
2019-05-26T11:17:36.069Z,2.00
2019-05-26T11:20:09.766Z,17.20
2019-05-26T11:22:38.393Z,2.67
2019-05-26T11:25:07.303Z,1.65
2019-05-26T11:27:35.858Z,1.95
2019-05-26T11:30:07.522Z,1.62
2019-05-26T11:32:36.094Z,1.47
2019-05-26T11:35:05.897Z,1.40
2019-05-26T11:37:34.346Z,1.30
2019-05-26T11:40:03.529Z,2.02
2019-05-26T11:42:32.028Z,1.45
2019-05-26T11:45:00.563Z,8.43
2019-05-26T11:47:29.073Z,1.22
2019-05-26T11:49:57.535Z,2.35
2019-05-26T11:52:26.088Z,1.40
2019-05-26T11:54:54.580Z,1.62
2019-05-26T11:57:23.085Z,1.70
2019-05-26T11:59:51.630Z,2.15
2019-05-26T12:02:20.217Z,1.30
2019-05-26T12:04:48.698Z,1.20
2019-05-26T12:07:17.122Z,3.22
2019-05-26T12:09:47.216Z,2.20
2019-05-26T12:12:15.687Z,2.00
2019-05-26T12:14:47.295Z,1.75
2019-05-26T12:17:15.971Z,1.20
2019-05-26T12:19:44.429Z,1.70
2019-05-26T12:22:12.950Z,3.00
2019-05-26T12:24:41.942Z,2.15
2019-05-26T12:27:10.366Z,1.50
2019-05-26T12:29:38.877Z,2.10
2019-05-26T12:32:07.357Z,2.10
2019-05-26T12:34:35.888Z,2.85
2019-05-26T12:37:04.454Z,1.65
2019-05-26T12:39:33.015Z,1.57
2019-05-26T12:42:01.679Z,1.60
2019-05-26T12:44:30.144Z,1.95
2019-05-26T12:46:58.632Z,1.60
2019-05-26T12:49:28.035Z,2.10
2019-05-26T12:51:56.558Z,3.12
2019-05-26T12:54:25.071Z,2.52
2019-05-26T12:56:53.645Z,2.10
2019-05-26T12:59:22.162Z,1.32
2019-05-26T13:01:50.610Z,1.92
2019-05-26T13:04:19.067Z,1.20
2019-05-26T13:06:47.559Z,2.35
2019-05-26T13:09:16.226Z,2.30
2019-05-26T13:11:46.317Z,1.87
2019-05-26T13:14:14.877Z,2.08
2019-05-26T13:16:43.368Z,1.60
2019-05-26T13:19:11.790Z,3.12
2019-05-26T13:21:40.262Z,1.70
2019-05-26T13:24:08.854Z,3.08
2019-05-26T13:26:37.384Z,3.25
2019-05-26T13:29:05.914Z,1.52
2019-05-26T13:31:34.365Z,1.80
2019-05-26T13:34:02.892Z,1.87
2019-05-26T13:36:31.389Z,5.25
2019-05-26T13:38:59.871Z,3.25
2019-05-26T13:41:28.282Z,3.02
2019-05-26T13:43:56.774Z,1.60
2019-05-26T13:46:25.194Z,1.50
2019-05-26T13:48:53.724Z,1.85
2019-05-26T13:51:22.243Z,2.05
2019-05-26T13:53:50.675Z,1.80
2019-05-26T13:56:19.205Z,2.00
2019-05-26T13:58:47.752Z,2.05
2019-05-26T14:01:16.457Z,2.00
2019-05-26T14:03:45.072Z,1.80
2019-05-26T14:06:13.567Z,1.87
2019-05-26T14:08:41.994Z,2.12
2019-05-26T14:11:10.525Z,3.75
2019-05-26T14:13:39.484Z,3.40
2019-05-26T14:16:08.033Z,1.60
2019-05-26T14:18:37.426Z,2.35
2019-05-26T14:21:05.943Z,1.60
2019-05-26T14:23:34.402Z,6.90
2019-05-26T14:26:02.932Z,1.60
2019-05-26T14:28:31.439Z,1.80
2019-05-26T14:30:59.980Z,2.00
2019-05-26T14:33:28.414Z,1.57
2019-05-26T14:35:57.022Z,2.00
2019-05-26T14:38:25.607Z,1.80
2019-05-26T14:40:54.101Z,1.75
2019-05-26T14:43:22.538Z,1.30
2019-05-26T14:45:53.712Z,1.60
2019-05-26T14:48:21.196Z,1.90
2019-05-26T14:50:49.640Z,1.50
2019-05-26T14:53:18.166Z,1.85
2019-05-26T14:55:46.675Z,1.65
2019-05-26T14:58:16.672Z,1.40
2019-05-26T15:00:45.470Z,2.75
2019-05-26T15:03:16.146Z,2.50
2019-05-26T15:05:44.587Z,2.37
2019-05-26T15:08:13.091Z,2.30
2019-05-26T15:10:41.692Z,2.67
2019-05-26T15:13:10.257Z,1.75
2019-05-26T15:15:38.694Z,3.35
2019-05-26T15:18:07.159Z,2.30
2019-05-26T15:20:35.699Z,1.82
2019-05-26T15:23:04.275Z,2.30
2019-05-26T15:25:32.859Z,1.50
2019-05-26T15:28:01.343Z,1.50
2019-05-26T15:30:29.899Z,2.02
2019-05-26T15:32:58.372Z,1.67
2019-05-26T15:35:26.883Z,2.35
2019-05-26T15:37:55.432Z,1.62
2019-05-26T15:40:24.051Z,2.05
2019-05-26T15:42:52.537Z,2.00
2019-05-26T15:45:21.159Z,1.90
2019-05-26T15:47:49.682Z,5.28
2019-05-26T15:50:18.478Z,1.62
2019-05-26T15:52:47.026Z,1.80
2019-05-26T15:55:15.610Z,1.87
2019-05-26T15:57:44.087Z,3.85
2019-05-26T16:00:13.161Z,2.35
2019-05-26T16:02:41.688Z,2.65
2019-05-26T16:05:11.132Z,2.30
2019-05-26T16:07:39.626Z,2.12
2019-05-26T16:10:08.636Z,2.27
2019-05-26T16:12:37.281Z,3.67
2019-05-26T16:15:08.249Z,1.90
2019-05-26T16:17:38.911Z,2.20
2019-05-26T16:20:08.190Z,2.05
2019-05-26T16:22:36.703Z,4.15
2019-05-26T16:25:07.646Z,2.40
2019-05-26T16:27:36.210Z,1.70
2019-05-26T16:30:09.707Z,1.92
2019-05-26T16:32:38.280Z,3.10
2019-05-26T16:35:07.647Z,1.90
2019-05-26T16:37:36.182Z,1.92
2019-05-26T16:40:06.278Z,1.75
2019-05-26T16:42:34.805Z,1.72
2019-05-26T16:45:04.288Z,1.70
2019-05-26T16:47:32.733Z,2.30
2019-05-26T16:50:01.192Z,2.75
2019-05-26T16:52:29.620Z,1.85
2019-05-26T16:54:58.077Z,2.12
2019-05-26T16:57:26.613Z,1.60
2019-05-26T16:59:55.058Z,1.98
2019-05-26T17:02:23.544Z,1.62
2019-05-26T17:04:52.080Z,1.92
2019-05-26T17:07:20.507Z,2.90
2019-05-26T17:09:48.975Z,1.90
2019-05-26T17:12:17.485Z,1.70
2019-05-26T17:14:45.955Z,1.75
2019-05-26T17:17:15.468Z,2.37
2019-05-26T17:19:44.032Z,1.50
2019-05-26T17:22:12.550Z,1.80
2019-05-26T17:24:41.030Z,2.95
2019-05-26T17:27:09.606Z,1.72
2019-05-26T17:29:38.207Z,2.25
2019-05-26T17:32:06.703Z,4.45
2019-05-26T17:34:35.508Z,1.52
2019-05-26T17:37:04.039Z,1.95
2019-05-26T17:39:32.508Z,2.05
2019-05-26T17:42:00.989Z,2.62
2019-05-26T17:44:29.572Z,2.75
2019-05-26T17:46:58.018Z,3.40
2019-05-26T17:49:26.635Z,2.10
2019-05-26T17:51:55.093Z,2.00
2019-05-26T17:54:23.600Z,2.33
2019-05-26T17:56:52.065Z,2.10
2019-05-26T17:59:20.668Z,4.25
2019-05-26T18:01:49.431Z,2.40
2019-05-26T18:04:17.970Z,2.17
2019-05-26T18:06:46.431Z,1.90
2019-05-26T18:09:15.075Z,3.30
2019-05-26T18:11:43.516Z,2.22
2019-05-26T18:14:11.951Z,4.40
2019-05-26T18:16:40.580Z,1.45
2019-05-26T18:19:09.185Z,1.62
2019-05-26T18:21:37.751Z,1.50
2019-05-26T18:24:06.350Z,1.55
2019-05-26T18:26:34.889Z,1.65
2019-05-26T18:29:03.585Z,1.90
2019-05-26T18:31:32.022Z,1.50
2019-05-26T18:34:00.534Z,1.62
2019-05-26T18:36:29.044Z,1.82
2019-05-26T18:38:57.492Z,1.80
2019-05-26T18:41:25.958Z,2.17
2019-05-26T18:43:54.546Z,2.00
2019-05-26T18:46:22.994Z,3.17
2019-05-26T18:48:51.559Z,2.02
2019-05-26T18:51:20.028Z,2.75
2019-05-26T18:53:48.542Z,2.12
2019-05-26T18:56:17.134Z,2.90
2019-05-26T18:58:45.632Z,2.22
2019-05-26T19:01:14.151Z,2.65
2019-05-26T19:03:42.603Z,1.87
2019-05-26T19:06:11.141Z,2.00
2019-05-26T19:08:39.732Z,2.90
2019-05-26T19:11:08.296Z,2.30
2019-05-26T19:13:36.855Z,2.33
2019-05-26T19:16:05.462Z,2.25
2019-05-26T19:18:33.880Z,3.25
2019-05-26T19:21:02.494Z,1.60
2019-05-26T19:23:31.024Z,2.35
2019-05-26T19:25:59.644Z,3.67
2019-05-26T19:28:28.083Z,1.70
2019-05-26T19:30:56.546Z,3.30
2019-05-26T19:33:25.145Z,2.08
2019-05-26T19:35:53.636Z,1.98
2019-05-26T19:38:22.130Z,2.10
2019-05-26T19:40:50.578Z,2.75
2019-05-26T19:43:19.023Z,2.90
2019-05-26T19:45:47.559Z,2.42
2019-05-26T19:48:16.073Z,2.70
2019-05-26T19:50:44.661Z,9.13
2019-05-26T19:53:13.128Z,8.58
2019-05-26T19:55:41.560Z,2.40
2019-05-26T19:58:10.167Z,2.47
2019-05-26T20:00:38.797Z,2.60
2019-05-26T20:03:07.366Z,2.22
2019-05-26T20:05:35.822Z,3.77
2019-05-26T20:08:04.445Z,2.30
2019-05-26T20:10:32.915Z,2.87
2019-05-26T20:13:01.409Z,2.30
2019-05-26T20:15:29.930Z,3.50
2019-05-26T20:17:58.497Z,2.40
2019-05-26T20:20:27.025Z,2.33
2019-05-26T20:22:55.573Z,2.95
2019-05-26T20:25:24.174Z,2.98
2019-05-26T20:27:52.591Z,2.70
2019-05-26T20:30:22.432Z,3.10
2019-05-26T20:32:51.595Z,4.15
2019-05-26T20:35:20.087Z,3.90
2019-05-26T20:37:48.536Z,2.75
2019-05-26T20:40:17.451Z,2.45
2019-05-26T20:42:45.860Z,2.65
2019-05-26T20:45:14.731Z,2.35
2019-05-26T20:47:43.230Z,2.45
2019-05-26T20:50:27.621Z,3.17
2019-05-26T20:52:42.220Z,3.05
2019-05-26T20:55:10.831Z,3.37
2019-05-26T20:57:39.356Z,2.65
2019-05-26T21:00:10.647Z,3.62
2019-05-26T21:02:39.809Z,4.67
2019-05-26T21:05:09.281Z,5.37
2019-05-26T21:07:37.717Z,5.80
2019-05-26T21:10:07.135Z,5.10
2019-05-26T21:12:35.714Z,4.92
2019-05-26T21:15:05.001Z,4.83
2019-05-26T21:17:33.417Z,5.05
2019-05-26T21:20:02.097Z,2.90
2019-05-26T21:22:30.537Z,3.52
2019-05-26T21:24:58.968Z,2.70
2019-05-26T21:27:27.420Z,2.87
2019-05-26T21:29:55.872Z,2.80
2019-05-26T21:32:24.376Z,3.45
2019-05-26T21:34:52.847Z,3.15
2019-05-26T21:37:21.272Z,6.87
2019-05-26T21:39:49.699Z,3.33
2019-05-26T21:42:18.218Z,4.25
2019-05-26T21:44:46.669Z,3.52
2019-05-26T21:47:15.601Z,3.90
2019-05-26T21:49:44.096Z,3.80
2019-05-26T21:52:12.644Z,3.30
2019-05-26T21:54:41.455Z,3.50
2019-05-26T21:57:09.936Z,3.95
2019-05-26T21:59:38.401Z,4.00
2019-05-26T22:02:06.969Z,4.35
2019-05-26T22:04:35.475Z,4.05
2019-05-26T22:07:03.982Z,5.08
2019-05-26T22:09:33.304Z,6.80
2019-05-26T22:12:01.845Z,5.30
2019-05-26T22:14:30.369Z,4.95
2019-05-26T22:16:58.794Z,4.62
2019-05-26T22:19:27.248Z,4.87
2019-05-26T22:21:55.679Z,4.60
2019-05-26T22:24:24.138Z,4.30
2019-05-26T22:26:52.588Z,3.72
2019-05-26T22:29:21.047Z,4.08
2019-05-26T22:31:49.555Z,3.75
2019-05-26T22:34:18.179Z,3.50
2019-05-26T22:36:46.728Z,3.35
2019-05-26T22:39:15.185Z,3.58
2019-05-26T22:41:43.701Z,3.58
2019-05-26T22:44:12.119Z,4.03
2019-05-26T22:46:40.581Z,4.00
2019-05-26T22:49:09.113Z,3.75
2019-05-26T22:51:37.563Z,4.28
2019-05-26T22:54:06.115Z,4.17
2019-05-26T22:56:34.563Z,4.67
2019-05-26T22:59:03.019Z,4.60
2019-05-26T23:01:31.493Z,4.12
2019-05-26T23:04:03.038Z,4.22
2019-05-26T23:06:30.168Z,4.25
2019-05-26T23:08:58.675Z,4.28
2019-05-26T23:11:27.085Z,4.80
2019-05-26T23:13:55.528Z,4.30
2019-05-26T23:16:23.977Z,5.62
2019-05-26T23:18:52.470Z,5.03
2019-05-26T23:21:20.911Z,4.55
2019-05-26T23:23:49.361Z,4.10
2019-05-26T23:26:17.779Z,4.60
2019-05-26T23:28:46.221Z,4.17
2019-05-26T23:31:14.818Z,6.92
2019-05-26T23:33:43.337Z,4.37
2019-05-26T23:36:11.780Z,4.20
2019-05-26T23:38:40.237Z,4.42
2019-05-26T23:41:08.679Z,4.00
2019-05-26T23:43:37.198Z,4.42
2019-05-26T23:46:05.694Z,4.35
2019-05-26T23:48:34.111Z,5.12
2019-05-26T23:51:02.583Z,5.42
2019-05-26T23:53:30.994Z,4.67
2019-05-26T23:55:59.446Z,4.50
2019-05-26T23:58:27.876Z,4.70
